Aviation Digital Data Service (ADDS)

Output produced by METARs form (2308 UTC 15 August 2018)
found at http://www.aviationweather.gov/adds/metars/
 
ESTA 152250Z AUTO 12003KT 9999 NCD 15/14 Q1016